sensor_id;sensor_type;location;lat;lon;timestamp;P1;durP1;ratioP1;P2;durP2;ratioP2
45905;SDS011;31619;49.008;12.106;2022-12-07T00:02:15;5.28;;;4.88;;
45905;SDS011;31619;49.008;12.106;2022-12-07T00:04:40;5.80;;;5.30;;
45905;SDS011;31619;49.008;12.106;2022-12-07T00:07:06;4.97;;;4.57;;
45905;SDS011;31619;49.008;12.106;2022-12-07T00:09:32;5.38;;;4.88;;
45905;SDS011;31619;49.008;12.106;2022-12-07T00:11:57;5.85;;;5.35;;
45905;SDS011;31619;49.008;12.106;2022-12-07T00:14:23;5.55;;;5.05;;
45905;SDS011;31619;49.008;12.106;2022-12-07T00:16:49;5.05;;;4.65;;
45905;SDS011;31619;49.008;12.106;2022-12-07T00:19:15;5.35;;;4.90;;
45905;SDS011;31619;49.008;12.106;2022-12-07T00:21:41;5.03;;;4.63;;
45905;SDS011;31619;49.008;12.106;2022-12-07T00:24:07;5.85;;;5.30;;
45905;SDS011;31619;49.008;12.106;2022-12-07T00:26:35;5.10;;;4.70;;
45905;SDS011;31619;49.008;12.106;2022-12-07T00:29:04;6.57;;;5.18;;
45905;SDS011;31619;49.008;12.106;2022-12-07T00:31:48;5.53;;;4.65;;
45905;SDS011;31619;49.008;12.106;2022-12-07T00:34:15;4.88;;;4.47;;
45905;SDS011;31619;49.008;12.106;2022-12-07T00:36:42;5.45;;;5.03;;
45905;SDS011;31619;49.008;12.106;2022-12-07T00:39:08;5.28;;;4.88;;
45905;SDS011;31619;49.008;12.106;2022-12-07T00:41:34;5.25;;;4.75;;
45905;SDS011;31619;49.008;12.106;2022-12-07T00:44:00;5.40;;;4.90;;
45905;SDS011;31619;49.008;12.106;2022-12-07T00:46:25;5.50;;;5.00;;
45905;SDS011;31619;49.008;12.106;2022-12-07T00:48:51;4.63;;;4.30;;
45905;SDS011;31619;49.008;12.106;2022-12-07T00:51:19;5.05;;;4.65;;
45905;SDS011;31619;49.008;12.106;2022-12-07T00:53:46;4.50;;;4.10;;
45905;SDS011;31619;49.008;12.106;2022-12-07T00:56:16;4.93;;;4.53;;
45905;SDS011;31619;49.008;12.106;2022-12-07T00:58:44;5.22;;;4.72;;
45905;SDS011;31619;49.008;12.106;2022-12-07T01:01:18;5.00;;;4.60;;
45905;SDS011;31619;49.008;12.106;2022-12-07T01:03:43;6.18;;;5.63;;
45905;SDS011;31619;49.008;12.106;2022-12-07T01:06:09;4.80;;;4.40;;
45905;SDS011;31619;49.008;12.106;2022-12-07T01:08:43;5.95;;;5.45;;
45905;SDS011;31619;49.008;12.106;2022-12-07T01:11:09;5.15;;;4.75;;
45905;SDS011;31619;49.008;12.106;2022-12-07T01:13:38;5.72;;;5.22;;
45905;SDS011;31619;49.008;12.106;2022-12-07T01:16:05;5.97;;;5.47;;
45905;SDS011;31619;49.008;12.106;2022-12-07T01:18:32;5.15;;;4.75;;
45905;SDS011;31619;49.008;12.106;2022-12-07T01:23:26;5.38;;;4.88;;
45905;SDS011;31619;49.008;12.106;2022-12-07T01:25:59;5.43;;;5.00;;
45905;SDS011;31619;49.008;12.106;2022-12-07T01:28:26;5.28;;;4.78;;
45905;SDS011;31619;49.008;12.106;2022-12-07T01:31:00;4.68;;;4.28;;
45905;SDS011;31619;49.008;12.106;2022-12-07T01:33:33;4.47;;;3.80;;
45905;SDS011;31619;49.008;12.106;2022-12-07T01:36:01;5.75;;;5.25;;
45905;SDS011;31619;49.008;12.106;2022-12-07T01:38:31;5.50;;;5.10;;
45905;SDS011;31619;49.008;12.106;2022-12-07T01:40:57;5.43;;;5.03;;
45905;SDS011;31619;49.008;12.106;2022-12-07T01:43:26;4.72;;;4.32;;
45905;SDS011;31619;49.008;12.106;2022-12-07T01:45:52;3.88;;;3.58;;
45905;SDS011;31619;49.008;12.106;2022-12-07T01:48:20;4.68;;;4.35;;
45905;SDS011;31619;49.008;12.106;2022-12-07T01:50:50;4.43;;;4.13;;
45905;SDS011;31619;49.008;12.106;2022-12-07T01:53:18;4.05;;;3.75;;
45905;SDS011;31619;49.008;12.106;2022-12-07T01:55:46;4.25;;;3.95;;
45905;SDS011;31619;49.008;12.106;2022-12-07T01:58:14;4.50;;;4.20;;
45905;SDS011;31619;49.008;12.106;2022-12-07T02:00:41;4.65;;;4.35;;
45905;SDS011;31619;49.008;12.106;2022-12-07T02:03:49;4.63;;;4.22;;
45905;SDS011;31619;49.008;12.106;2022-12-07T02:05:59;4.88;;;4.47;;
45905;SDS011;31619;49.008;12.106;2022-12-07T02:08:25;3.63;;;3.42;;
45905;SDS011;31619;49.008;12.106;2022-12-07T02:10:51;5.55;;;5.15;;
45905;SDS011;31619;49.008;12.106;2022-12-07T02:13:21;5.63;;;5.15;;
45905;SDS011;31619;49.008;12.106;2022-12-07T02:16:09;5.90;;;5.43;;
45905;SDS011;31619;49.008;12.106;2022-12-07T02:19:01;6.38;;;5.78;;
45905;SDS011;31619;49.008;12.106;2022-12-07T02:30:14;4.38;;;3.97;;
45905;SDS011;31619;49.008;12.106;2022-12-07T02:38:45;4.53;;;3.25;;
45905;SDS011;31619;49.008;12.106;2022-12-07T02:41:18;6.82;;;6.22;;
45905;SDS011;31619;49.008;12.106;2022-12-07T02:43:46;5.53;;;4.88;;
45905;SDS011;31619;49.008;12.106;2022-12-07T02:46:18;6.65;;;6.15;;
45905;SDS011;31619;49.008;12.106;2022-12-07T02:48:51;6.60;;;6.00;;
45905;SDS011;31619;49.008;12.106;2022-12-07T02:51:18;5.93;;;5.32;;
45905;SDS011;31619;49.008;12.106;2022-12-07T02:53:44;6.93;;;6.32;;
45905;SDS011;31619;49.008;12.106;2022-12-07T02:59:24;4.10;;;3.80;;
45905;SDS011;31619;49.008;12.106;2022-12-07T03:07:32;6.03;;;5.53;;
45905;SDS011;31619;49.008;12.106;2022-12-07T03:10:27;6.20;;;5.68;;
45905;SDS011;31619;49.008;12.106;2022-12-07T03:15:33;6.72;;;6.13;;
45905;SDS011;31619;49.008;12.106;2022-12-07T03:18:13;7.18;;;6.32;;
45905;SDS011;31619;49.008;12.106;2022-12-07T03:20:43;7.25;;;6.55;;
45905;SDS011;31619;49.008;12.106;2022-12-07T03:23:10;6.55;;;6.03;;
45905;SDS011;31619;49.008;12.106;2022-12-07T03:25:39;7.00;;;6.40;;
45905;SDS011;31619;49.008;12.106;2022-12-07T03:28:09;7.80;;;7.10;;
45905;SDS011;31619;49.008;12.106;2022-12-07T03:33:20;8.38;;;7.60;;
45905;SDS011;31619;49.008;12.106;2022-12-07T03:35:52;7.78;;;7.00;;
45905;SDS011;31619;49.008;12.106;2022-12-07T03:40:58;6.63;;;5.88;;
45905;SDS011;31619;49.008;12.106;2022-12-07T03:43:29;8.07;;;7.28;;
45905;SDS011;31619;49.008;12.106;2022-12-07T03:46:12;9.10;;;8.20;;
45905;SDS011;31619;49.008;12.106;2022-12-07T03:48:49;8.43;;;7.63;;
45905;SDS011;31619;49.008;12.106;2022-12-07T03:51:54;8.63;;;7.82;;
45905;SDS011;31619;49.008;12.106;2022-12-07T03:54:30;9.13;;;8.32;;
45905;SDS011;31619;49.008;12.106;2022-12-07T03:57:01;8.75;;;7.88;;
45905;SDS011;31619;49.008;12.106;2022-12-07T03:59:28;8.85;;;8.05;;
45905;SDS011;31619;49.008;12.106;2022-12-07T04:01:56;9.02;;;8.15;;
45905;SDS011;31619;49.008;12.106;2022-12-07T04:04:26;9.70;;;8.80;;
45905;SDS011;31619;49.008;12.106;2022-12-07T04:06:53;9.18;;;8.27;;
45905;SDS011;31619;49.008;12.106;2022-12-07T04:09:18;8.07;;;7.35;;
45905;SDS011;31619;49.008;12.106;2022-12-07T04:11:44;9.75;;;8.77;;
45905;SDS011;31619;49.008;12.106;2022-12-07T04:14:10;6.57;;;5.88;;
45905;SDS011;31619;49.008;12.106;2022-12-07T04:16:45;9.13;;;8.13;;
45905;SDS011;31619;49.008;12.106;2022-12-07T04:19:12;9.02;;;8.13;;
45905;SDS011;31619;49.008;12.106;2022-12-07T04:21:38;8.77;;;7.30;;
45905;SDS011;31619;49.008;12.106;2022-12-07T04:24:04;9.20;;;8.23;;
45905;SDS011;31619;49.008;12.106;2022-12-07T04:26:29;9.15;;;8.25;;
45905;SDS011;31619;49.008;12.106;2022-12-07T04:28:55;9.55;;;8.65;;
45905;SDS011;31619;49.008;12.106;2022-12-07T04:31:21;9.60;;;8.27;;
45905;SDS011;31619;49.008;12.106;2022-12-07T04:33:46;9.43;;;8.52;;
45905;SDS011;31619;49.008;12.106;2022-12-07T04:36:12;9.45;;;8.50;;
45905;SDS011;31619;49.008;12.106;2022-12-07T04:38:37;10.07;;;9.10;;
45905;SDS011;31619;49.008;12.106;2022-12-07T04:41:06;9.40;;;8.50;;
45905;SDS011;31619;49.008;12.106;2022-12-07T04:43:33;8.55;;;7.63;;
45905;SDS011;31619;49.008;12.106;2022-12-07T04:46:00;7.65;;;6.93;;
45905;SDS011;31619;49.008;12.106;2022-12-07T04:48:26;7.35;;;5.60;;
45905;SDS011;31619;49.008;12.106;2022-12-07T04:50:52;10.20;;;8.05;;
45905;SDS011;31619;49.008;12.106;2022-12-07T04:53:17;9.52;;;7.78;;
45905;SDS011;31619;49.008;12.106;2022-12-07T04:55:44;9.27;;;8.38;;
45905;SDS011;31619;49.008;12.106;2022-12-07T04:58:11;9.45;;;8.63;;
45905;SDS011;31619;49.008;12.106;2022-12-07T05:00:37;9.88;;;8.98;;
45905;SDS011;31619;49.008;12.106;2022-12-07T05:03:03;10.05;;;9.05;;
45905;SDS011;31619;49.008;12.106;2022-12-07T05:05:28;9.20;;;8.30;;
45905;SDS011;31619;49.008;12.106;2022-12-07T05:07:54;9.90;;;8.93;;
45905;SDS011;31619;49.008;12.106;2022-12-07T05:10:20;9.70;;;8.70;;
45905;SDS011;31619;49.008;12.106;2022-12-07T05:12:45;9.13;;;8.23;;
45905;SDS011;31619;49.008;12.106;2022-12-07T05:15:11;10.13;;;9.13;;
45905;SDS011;31619;49.008;12.106;2022-12-07T05:17:38;9.73;;;8.77;;
45905;SDS011;31619;49.008;12.106;2022-12-07T05:20:04;10.57;;;9.57;;
45905;SDS011;31619;49.008;12.106;2022-12-07T05:22:30;10.35;;;9.27;;
45905;SDS011;31619;49.008;12.106;2022-12-07T05:24:56;10.45;;;9.45;;
45905;SDS011;31619;49.008;12.106;2022-12-07T05:27:21;9.88;;;8.88;;
45905;SDS011;31619;49.008;12.106;2022-12-07T05:29:49;10.33;;;9.33;;
45905;SDS011;31619;49.008;12.106;2022-12-07T05:32:15;11.57;;;9.95;;
45905;SDS011;31619;49.008;12.106;2022-12-07T05:34:41;9.75;;;8.75;;
45905;SDS011;31619;49.008;12.106;2022-12-07T05:37:06;10.10;;;9.10;;
45905;SDS011;31619;49.008;12.106;2022-12-07T05:39:32;10.00;;;8.88;;
45905;SDS011;31619;49.008;12.106;2022-12-07T05:41:57;9.57;;;8.55;;
45905;SDS011;31619;49.008;12.106;2022-12-07T05:44:39;10.15;;;9.15;;
45905;SDS011;31619;49.008;12.106;2022-12-07T05:47:05;9.18;;;8.07;;
45905;SDS011;31619;49.008;12.106;2022-12-07T05:49:31;10.57;;;9.47;;
45905;SDS011;31619;49.008;12.106;2022-12-07T05:51:57;10.20;;;9.20;;
45905;SDS011;31619;49.008;12.106;2022-12-07T05:54:22;11.27;;;10.13;;
45905;SDS011;31619;49.008;12.106;2022-12-07T05:56:48;12.07;;;10.87;;
45905;SDS011;31619;49.008;12.106;2022-12-07T05:59:14;10.85;;;9.60;;
45905;SDS011;31619;49.008;12.106;2022-12-07T06:01:52;12.80;;;10.93;;
45905;SDS011;31619;49.008;12.106;2022-12-07T06:04:33;11.93;;;10.13;;
45905;SDS011;31619;49.008;12.106;2022-12-07T06:07:00;11.27;;;10.00;;
45905;SDS011;31619;49.008;12.106;2022-12-07T06:09:27;12.17;;;10.87;;
45905;SDS011;31619;49.008;12.106;2022-12-07T06:11:53;12.83;;;10.00;;
45905;SDS011;31619;49.008;12.106;2022-12-07T06:14:38;10.70;;;9.07;;
45905;SDS011;31619;49.008;12.106;2022-12-07T06:17:04;11.00;;;9.90;;
45905;SDS011;31619;49.008;12.106;2022-12-07T06:19:30;11.83;;;10.63;;
45905;SDS011;31619;49.008;12.106;2022-12-07T06:21:56;13.17;;;10.93;;
45905;SDS011;31619;49.008;12.106;2022-12-07T06:24:22;12.80;;;11.43;;
45905;SDS011;31619;49.008;12.106;2022-12-07T06:26:48;13.93;;;10.57;;
45905;SDS011;31619;49.008;12.106;2022-12-07T06:29:14;13.47;;;10.80;;
45905;SDS011;31619;49.008;12.106;2022-12-07T06:31:40;11.33;;;10.13;;
45905;SDS011;31619;49.008;12.106;2022-12-07T06:34:07;9.43;;;8.37;;
45905;SDS011;31619;49.008;12.106;2022-12-07T06:36:36;10.97;;;9.83;;
45905;SDS011;31619;49.008;12.106;2022-12-07T06:39:02;10.53;;;9.00;;
45905;SDS011;31619;49.008;12.106;2022-12-07T06:41:29;12.20;;;10.90;;
45905;SDS011;31619;49.008;12.106;2022-12-07T06:43:55;13.23;;;10.23;;
45905;SDS011;31619;49.008;12.106;2022-12-07T06:46:20;11.17;;;9.77;;
45905;SDS011;31619;49.008;12.106;2022-12-07T06:48:46;11.23;;;10.03;;
45905;SDS011;31619;49.008;12.106;2022-12-07T06:51:12;12.00;;;9.60;;
45905;SDS011;31619;49.008;12.106;2022-12-07T06:53:37;15.48;;;9.90;;
45905;SDS011;31619;49.008;12.106;2022-12-07T06:56:03;10.53;;;9.43;;
45905;SDS011;31619;49.008;12.106;2022-12-07T06:58:29;11.37;;;9.97;;
45905;SDS011;31619;49.008;12.106;2022-12-07T07:00:55;12.57;;;10.93;;
45905;SDS011;31619;49.008;12.106;2022-12-07T07:03:21;12.48;;;10.40;;
45905;SDS011;31619;49.008;12.106;2022-12-07T07:05:47;11.10;;;9.88;;
45905;SDS011;31619;49.008;12.106;2022-12-07T07:08:13;12.40;;;11.20;;
45905;SDS011;31619;49.008;12.106;2022-12-07T07:10:39;11.93;;;10.60;;
45905;SDS011;31619;49.008;12.106;2022-12-07T07:13:05;11.50;;;10.20;;
45905;SDS011;31619;49.008;12.106;2022-12-07T07:15:31;12.98;;;10.35;;
45905;SDS011;31619;49.008;12.106;2022-12-07T07:17:57;14.33;;;10.67;;
45905;SDS011;31619;49.008;12.106;2022-12-07T07:20:23;13.75;;;12.23;;
45905;SDS011;31619;49.008;12.106;2022-12-07T07:22:48;13.63;;;10.75;;
45905;SDS011;31619;49.008;12.106;2022-12-07T07:25:14;12.63;;;10.63;;
45905;SDS011;31619;49.008;12.106;2022-12-07T07:27:40;13.25;;;10.43;;
45905;SDS011;31619;49.008;12.106;2022-12-07T07:30:06;11.85;;;10.65;;
45905;SDS011;31619;49.008;12.106;2022-12-07T07:32:32;12.70;;;10.23;;
45905;SDS011;31619;49.008;12.106;2022-12-07T07:34:58;12.05;;;9.40;;
45905;SDS011;31619;49.008;12.106;2022-12-07T07:37:24;10.95;;;9.75;;
45905;SDS011;31619;49.008;12.106;2022-12-07T07:39:49;10.25;;;9.13;;
45905;SDS011;31619;49.008;12.106;2022-12-07T07:42:15;11.50;;;10.30;;
45905;SDS011;31619;49.008;12.106;2022-12-07T07:44:40;12.82;;;10.43;;
45905;SDS011;31619;49.008;12.106;2022-12-07T07:47:06;14.20;;;10.93;;
45905;SDS011;31619;49.008;12.106;2022-12-07T07:49:32;13.77;;;10.82;;
45905;SDS011;31619;49.008;12.106;2022-12-07T07:51:57;12.02;;;10.60;;
45905;SDS011;31619;49.008;12.106;2022-12-07T07:54:23;11.85;;;10.38;;
45905;SDS011;31619;49.008;12.106;2022-12-07T07:56:48;11.57;;;10.38;;
45905;SDS011;31619;49.008;12.106;2022-12-07T07:59:14;14.20;;;12.05;;
45905;SDS011;31619;49.008;12.106;2022-12-07T08:01:40;12.13;;;9.88;;
45905;SDS011;31619;49.008;12.106;2022-12-07T08:04:06;12.00;;;9.43;;
45905;SDS011;31619;49.008;12.106;2022-12-07T08:06:32;11.98;;;10.68;;
45905;SDS011;31619;49.008;12.106;2022-12-07T08:08:57;13.60;;;10.55;;
45905;SDS011;31619;49.008;12.106;2022-12-07T08:11:23;12.38;;;10.73;;
45905;SDS011;31619;49.008;12.106;2022-12-07T08:13:49;11.23;;;10.02;;
45905;SDS011;31619;49.008;12.106;2022-12-07T08:16:15;12.10;;;9.30;;
45905;SDS011;31619;49.008;12.106;2022-12-07T08:18:41;9.80;;;8.80;;
45905;SDS011;31619;49.008;12.106;2022-12-07T08:21:09;9.60;;;8.70;;
45905;SDS011;31619;49.008;12.106;2022-12-07T08:23:37;10.02;;;9.02;;
45905;SDS011;31619;49.008;12.106;2022-12-07T08:26:04;10.30;;;9.07;;
45905;SDS011;31619;49.008;12.106;2022-12-07T08:28:31;9.98;;;8.98;;
45905;SDS011;31619;49.008;12.106;2022-12-07T08:31:05;10.57;;;9.50;;
45905;SDS011;31619;49.008;12.106;2022-12-07T08:33:32;9.93;;;8.95;;
45905;SDS011;31619;49.008;12.106;2022-12-07T08:36:01;11.50;;;8.57;;
45905;SDS011;31619;49.008;12.106;2022-12-07T08:38:29;8.85;;;7.97;;
45905;SDS011;31619;49.008;12.106;2022-12-07T08:40:55;8.93;;;8.02;;
45905;SDS011;31619;49.008;12.106;2022-12-07T08:43:21;9.05;;;7.88;;
45905;SDS011;31619;49.008;12.106;2022-12-07T08:45:47;9.18;;;8.27;;
45905;SDS011;31619;49.008;12.106;2022-12-07T08:48:25;9.20;;;8.30;;
45905;SDS011;31619;49.008;12.106;2022-12-07T08:50:51;9.57;;;8.10;;
45905;SDS011;31619;49.008;12.106;2022-12-07T08:53:17;9.52;;;8.27;;
45905;SDS011;31619;49.008;12.106;2022-12-07T08:55:43;8.98;;;7.90;;
45905;SDS011;31619;49.008;12.106;2022-12-07T08:58:11;9.38;;;7.60;;
45905;SDS011;31619;49.008;12.106;2022-12-07T09:00:36;8.27;;;7.40;;
45905;SDS011;31619;49.008;12.106;2022-12-07T09:03:02;12.40;;;8.52;;
45905;SDS011;31619;49.008;12.106;2022-12-07T09:05:27;10.60;;;8.63;;
45905;SDS011;31619;49.008;12.106;2022-12-07T09:07:54;9.88;;;8.88;;
45905;SDS011;31619;49.008;12.106;2022-12-07T09:10:22;9.27;;;8.38;;
45905;SDS011;31619;49.008;12.106;2022-12-07T09:12:48;9.38;;;8.38;;
45905;SDS011;31619;49.008;12.106;2022-12-07T09:15:14;8.52;;;7.65;;
45905;SDS011;31619;49.008;12.106;2022-12-07T09:17:40;10.50;;;8.23;;
45905;SDS011;31619;49.008;12.106;2022-12-07T09:20:06;9.45;;;7.68;;
45905;SDS011;31619;49.008;12.106;2022-12-07T09:22:32;8.65;;;7.32;;
45905;SDS011;31619;49.008;12.106;2022-12-07T09:24:58;8.50;;;7.55;;
45905;SDS011;31619;49.008;12.106;2022-12-07T09:27:24;9.95;;;8.93;;
45905;SDS011;31619;49.008;12.106;2022-12-07T09:29:51;9.98;;;7.20;;
45905;SDS011;31619;49.008;12.106;2022-12-07T09:32:16;7.82;;;7.03;;
45905;SDS011;31619;49.008;12.106;2022-12-07T09:34:42;8.10;;;7.30;;
45905;SDS011;31619;49.008;12.106;2022-12-07T09:37:08;12.15;;;8.10;;
45905;SDS011;31619;49.008;12.106;2022-12-07T09:39:34;8.48;;;7.68;;
45905;SDS011;31619;49.008;12.106;2022-12-07T09:41:59;8.43;;;5.88;;
45905;SDS011;31619;49.008;12.106;2022-12-07T09:44:28;9.25;;;8.25;;
45905;SDS011;31619;49.008;12.106;2022-12-07T09:46:54;8.70;;;7.90;;
45905;SDS011;31619;49.008;12.106;2022-12-07T09:49:21;9.30;;;7.85;;
45905;SDS011;31619;49.008;12.106;2022-12-07T09:51:59;8.52;;;7.70;;
45905;SDS011;31619;49.008;12.106;2022-12-07T09:54:35;7.57;;;6.80;;
45905;SDS011;31619;49.008;12.106;2022-12-07T09:57:04;7.30;;;6.60;;
45905;SDS011;31619;49.008;12.106;2022-12-07T09:59:30;8.65;;;7.47;;
45905;SDS011;31619;49.008;12.106;2022-12-07T10:01:55;7.40;;;6.65;;
45905;SDS011;31619;49.008;12.106;2022-12-07T10:04:47;8.50;;;7.70;;
45905;SDS011;31619;49.008;12.106;2022-12-07T10:07:12;9.15;;;8.25;;
45905;SDS011;31619;49.008;12.106;2022-12-07T10:09:38;8.93;;;7.88;;
45905;SDS011;31619;49.008;12.106;2022-12-07T10:12:07;9.13;;;8.18;;
45905;SDS011;31619;49.008;12.106;2022-12-07T10:14:36;7.97;;;7.18;;
45905;SDS011;31619;49.008;12.106;2022-12-07T10:17:21;8.10;;;7.30;;
45905;SDS011;31619;49.008;12.106;2022-12-07T10:19:51;8.93;;;7.95;;
45905;SDS011;31619;49.008;12.106;2022-12-07T10:22:17;7.35;;;6.55;;
45905;SDS011;31619;49.008;12.106;2022-12-07T10:24:43;8.68;;;7.20;;
45905;SDS011;31619;49.008;12.106;2022-12-07T10:27:21;9.32;;;7.63;;
45905;SDS011;31619;49.008;12.106;2022-12-07T10:29:52;8.48;;;7.60;;
45905;SDS011;31619;49.008;12.106;2022-12-07T10:34:43;6.72;;;5.93;;
45905;SDS011;31619;49.008;12.106;2022-12-07T10:39:47;7.07;;;6.25;;
45905;SDS011;31619;49.008;12.106;2022-12-07T10:42:22;6.45;;;4.72;;
45905;SDS011;31619;49.008;12.106;2022-12-07T10:44:50;7.70;;;6.15;;
45905;SDS011;31619;49.008;12.106;2022-12-07T10:53:05;6.57;;;5.90;;
45905;SDS011;31619;49.008;12.106;2022-12-07T10:58:27;7.07;;;6.07;;
45905;SDS011;31619;49.008;12.106;2022-12-07T11:06:39;5.88;;;5.28;;
45905;SDS011;31619;49.008;12.106;2022-12-07T11:09:49;4.60;;;4.20;;
45905;SDS011;31619;49.008;12.106;2022-12-07T11:12:41;6.38;;;5.72;;
45905;SDS011;31619;49.008;12.106;2022-12-07T11:18:14;4.30;;;3.90;;
45905;SDS011;31619;49.008;12.106;2022-12-07T11:21:04;5.68;;;5.18;;
45905;SDS011;31619;49.008;12.106;2022-12-07T11:26:25;5.57;;;5.00;;
45905;SDS011;31619;49.008;12.106;2022-12-07T11:35:01;2.85;;;2.63;;
45905;SDS011;31619;49.008;12.106;2022-12-07T11:37:14;10.15;;;6.22;;
45905;SDS011;31619;49.008;12.106;2022-12-07T11:39:54;11.20;;;5.68;;
45905;SDS011;31619;49.008;12.106;2022-12-07T11:42:25;7.00;;;5.53;;
45905;SDS011;31619;49.008;12.106;2022-12-07T11:47:47;6.30;;;5.63;;
45905;SDS011;31619;49.008;12.106;2022-12-07T11:58:08;5.47;;;4.95;;
45905;SDS011;31619;49.008;12.106;2022-12-07T12:01:46;5.05;;;4.55;;
45905;SDS011;31619;49.008;12.106;2022-12-07T12:03:48;5.20;;;4.70;;
45905;SDS011;31619;49.008;12.106;2022-12-07T12:06:16;8.40;;;3.60;;
45905;SDS011;31619;49.008;12.106;2022-12-07T12:08:46;4.13;;;3.45;;
45905;SDS011;31619;49.008;12.106;2022-12-07T12:21:41;5.40;;;4.32;;
45905;SDS011;31619;49.008;12.106;2022-12-07T12:24:15;5.07;;;4.55;;
45905;SDS011;31619;49.008;12.106;2022-12-07T12:26:50;5.25;;;4.75;;
45905;SDS011;31619;49.008;12.106;2022-12-07T12:29:39;5.72;;;5.10;;
45905;SDS011;31619;49.008;12.106;2022-12-07T12:32:07;4.80;;;4.38;;
45905;SDS011;31619;49.008;12.106;2022-12-07T12:37:38;5.22;;;4.55;;
45905;SDS011;31619;49.008;12.106;2022-12-07T12:42:53;6.50;;;5.32;;
45905;SDS011;31619;49.008;12.106;2022-12-07T12:47:54;8.93;;;5.10;;
45905;SDS011;31619;49.008;12.106;2022-12-07T13:00:44;5.65;;;5.05;;
45905;SDS011;31619;49.008;12.106;2022-12-07T13:03:26;6.05;;;5.45;;
45905;SDS011;31619;49.008;12.106;2022-12-07T13:08:53;6.38;;;5.35;;
45905;SDS011;31619;49.008;12.106;2022-12-07T13:14:18;8.35;;;6.10;;
45905;SDS011;31619;49.008;12.106;2022-12-07T13:16:58;5.85;;;5.25;;
45905;SDS011;31619;49.008;12.106;2022-12-07T13:22:50;6.63;;;5.50;;
45905;SDS011;31619;49.008;12.106;2022-12-07T13:25:11;5.82;;;5.32;;
45905;SDS011;31619;49.008;12.106;2022-12-07T13:27:37;5.07;;;3.28;;
45905;SDS011;31619;49.008;12.106;2022-12-07T13:30:24;6.70;;;4.65;;
45905;SDS011;31619;49.008;12.106;2022-12-07T13:32:51;5.82;;;4.53;;
45905;SDS011;31619;49.008;12.106;2022-12-07T13:35:35;6.82;;;5.45;;
45905;SDS011;31619;49.008;12.106;2022-12-07T13:38:13;6.78;;;6.07;;
45905;SDS011;31619;49.008;12.106;2022-12-07T13:40:59;5.53;;;4.95;;
45905;SDS011;31619;49.008;12.106;2022-12-07T13:44:01;7.63;;;5.40;;
45905;SDS011;31619;49.008;12.106;2022-12-07T13:46:52;4.75;;;3.80;;
45905;SDS011;31619;49.008;12.106;2022-12-07T13:49:38;5.60;;;5.07;;
45905;SDS011;31619;49.008;12.106;2022-12-07T13:52:20;8.63;;;6.10;;
45905;SDS011;31619;49.008;12.106;2022-12-07T13:57:31;5.53;;;5.03;;
45905;SDS011;31619;49.008;12.106;2022-12-07T14:00:00;6.13;;;4.90;;
45905;SDS011;31619;49.008;12.106;2022-12-07T14:02:31;4.80;;;4.30;;
45905;SDS011;31619;49.008;12.106;2022-12-07T14:07:32;5.07;;;4.35;;
45905;SDS011;31619;49.008;12.106;2022-12-07T14:10:03;6.32;;;5.30;;
45905;SDS011;31619;49.008;12.106;2022-12-07T14:12:31;5.47;;;4.95;;
45905;SDS011;31619;49.008;12.106;2022-12-07T14:15:00;6.72;;;4.50;;
45905;SDS011;31619;49.008;12.106;2022-12-07T14:17:28;6.35;;;4.57;;
45905;SDS011;31619;49.008;12.106;2022-12-07T14:19:55;6.68;;;4.97;;
45905;SDS011;31619;49.008;12.106;2022-12-07T14:22:29;6.93;;;6.00;;
45905;SDS011;31619;49.008;12.106;2022-12-07T14:27:30;6.22;;;5.63;;
45905;SDS011;31619;49.008;12.106;2022-12-07T14:30:01;4.93;;;4.40;;
45905;SDS011;31619;49.008;12.106;2022-12-07T14:32:28;4.00;;;3.50;;
45905;SDS011;31619;49.008;12.106;2022-12-07T14:37:23;6.93;;;6.22;;
45905;SDS011;31619;49.008;12.106;2022-12-07T14:39:49;6.43;;;5.78;;
45905;SDS011;31619;49.008;12.106;2022-12-07T14:42:15;4.78;;;4.35;;
45905;SDS011;31619;49.008;12.106;2022-12-07T14:44:40;6.10;;;5.50;;
45905;SDS011;31619;49.008;12.106;2022-12-07T14:47:10;9.18;;;5.60;;
45905;SDS011;31619;49.008;12.106;2022-12-07T14:49:37;10.45;;;6.95;;
45905;SDS011;31619;49.008;12.106;2022-12-07T14:52:03;6.75;;;6.03;;
45905;SDS011;31619;49.008;12.106;2022-12-07T14:54:31;5.90;;;4.88;;
45905;SDS011;31619;49.008;12.106;2022-12-07T14:56:57;7.20;;;6.03;;
45905;SDS011;31619;49.008;12.106;2022-12-07T14:59:23;7.57;;;6.63;;
45905;SDS011;31619;49.008;12.106;2022-12-07T15:01:49;6.18;;;5.47;;
45905;SDS011;31619;49.008;12.106;2022-12-07T15:04:15;5.75;;;5.15;;
45905;SDS011;31619;49.008;12.106;2022-12-07T15:06:41;7.20;;;5.35;;
45905;SDS011;31619;49.008;12.106;2022-12-07T15:09:10;7.57;;;5.50;;
45905;SDS011;31619;49.008;12.106;2022-12-07T15:11:36;6.35;;;5.32;;
45905;SDS011;31619;49.008;12.106;2022-12-07T15:14:02;6.30;;;5.60;;
45905;SDS011;31619;49.008;12.106;2022-12-07T15:16:34;5.90;;;5.28;;
45905;SDS011;31619;49.008;12.106;2022-12-07T15:19:00;4.45;;;3.58;;
45905;SDS011;31619;49.008;12.106;2022-12-07T15:21:26;9.18;;;5.53;;
45905;SDS011;31619;49.008;12.106;2022-12-07T15:23:51;5.47;;;4.97;;
45905;SDS011;31619;49.008;12.106;2022-12-07T15:26:18;7.50;;;6.40;;
45905;SDS011;31619;49.008;12.106;2022-12-07T15:28:43;7.15;;;6.30;;
45905;SDS011;31619;49.008;12.106;2022-12-07T15:31:12;7.30;;;6.00;;
45905;SDS011;31619;49.008;12.106;2022-12-07T15:33:42;11.00;;;6.88;;
45905;SDS011;31619;49.008;12.106;2022-12-07T15:36:09;6.15;;;5.55;;
45905;SDS011;31619;49.008;12.106;2022-12-07T15:38:51;6.80;;;5.20;;
45905;SDS011;31619;49.008;12.106;2022-12-07T15:41:17;6.53;;;5.82;;
45905;SDS011;31619;49.008;12.106;2022-12-07T15:43:43;6.88;;;6.18;;
45905;SDS011;31619;49.008;12.106;2022-12-07T15:46:46;10.52;;;6.43;;
45905;SDS011;31619;49.008;12.106;2022-12-07T15:49:16;7.03;;;6.32;;
45905;SDS011;31619;49.008;12.106;2022-12-07T15:51:43;6.70;;;6.10;;
45905;SDS011;31619;49.008;12.106;2022-12-07T15:54:18;5.63;;;5.03;;
45905;SDS011;31619;49.008;12.106;2022-12-07T15:56:46;7.10;;;5.20;;
45905;SDS011;31619;49.008;12.106;2022-12-07T15:59:12;7.45;;;6.75;;
45905;SDS011;31619;49.008;12.106;2022-12-07T16:01:39;7.95;;;7.15;;
45905;SDS011;31619;49.008;12.106;2022-12-07T16:04:04;6.93;;;6.32;;
45905;SDS011;31619;49.008;12.106;2022-12-07T16:06:30;6.80;;;6.13;;
45905;SDS011;31619;49.008;12.106;2022-12-07T16:08:55;5.68;;;5.15;;
45905;SDS011;31619;49.008;12.106;2022-12-07T16:11:21;7.70;;;5.88;;
45905;SDS011;31619;49.008;12.106;2022-12-07T16:13:47;6.30;;;4.88;;
45905;SDS011;31619;49.008;12.106;2022-12-07T16:16:13;7.63;;;6.82;;
45905;SDS011;31619;49.008;12.106;2022-12-07T16:18:44;7.07;;;6.38;;
45905;SDS011;31619;49.008;12.106;2022-12-07T16:21:11;6.05;;;5.45;;
45905;SDS011;31619;49.008;12.106;2022-12-07T16:23:38;5.90;;;3.97;;
45905;SDS011;31619;49.008;12.106;2022-12-07T16:26:07;6.82;;;6.13;;
45905;SDS011;31619;49.008;12.106;2022-12-07T16:28:43;6.75;;;5.63;;
45905;SDS011;31619;49.008;12.106;2022-12-07T16:31:11;6.75;;;5.65;;
45905;SDS011;31619;49.008;12.106;2022-12-07T16:33:39;6.25;;;5.65;;
45905;SDS011;31619;49.008;12.106;2022-12-07T16:36:05;6.95;;;6.25;;
45905;SDS011;31619;49.008;12.106;2022-12-07T16:38:32;6.93;;;6.05;;
45905;SDS011;31619;49.008;12.106;2022-12-07T16:40:58;6.93;;;5.97;;
45905;SDS011;31619;49.008;12.106;2022-12-07T16:43:24;6.28;;;5.68;;
45905;SDS011;31619;49.008;12.106;2022-12-07T16:45:50;7.72;;;6.05;;
45905;SDS011;31619;49.008;12.106;2022-12-07T16:48:15;8.45;;;6.43;;